Time;durP1;ratioP1;P1;durP2;ratioP2;P2;SDS_P1;SDS_P2;PMS_P1;PMS_P2;Temp;Humidity;BMP_temperature;BMP_pressure;BME280_temperature;BME280_humidity;BME280_pressure;Samples;Min_cycle;Max_cycle;Signal;HPM_P1;HPM_P2
2023/03/30 00:00:53;;;;;;;7.65;5.70;;;11.30;99.90;;;;;;5097842;27;20545;-72
2023/03/30 00:03:21;;;;;;;7.93;5.43;;;11.30;99.90;;;;;;5127408;27;20062;-71
2023/03/30 00:05:48;;;;;;;9.80;5.68;;;11.30;99.90;;;;;;5118073;27;20524;-70
2023/03/30 00:08:17;;;;;;;8.07;5.28;;;11.30;99.90;;;;;;5101010;27;20059;-70
2023/03/30 00:10:43;;;;;;;9.38;5.18;;;11.30;99.90;;;;;;5113894;27;20050;-69
2023/03/30 00:13:10;;;;;;;9.02;5.68;;;11.30;99.90;;;;;;5123793;27;20054;-70
2023/03/30 00:15:36;;;;;;;10.80;5.80;;;11.30;99.90;;;;;;5128232;27;20560;-70
2023/03/30 00:18:02;;;;;;;7.10;5.05;;;11.30;99.90;;;;;;5120307;27;20031;-71
2023/03/30 00:20:31;;;;;;;7.63;5.35;;;11.30;99.90;;;;;;5113345;27;20039;-71
2023/03/30 00:22:57;;;;;;;8.40;4.97;;;11.30;99.90;;;;;;5155159;27;20058;-69
2023/03/30 00:25:23;;;;;;;8.55;5.47;;;11.30;99.90;;;;;;5111736;27;20050;-71
2023/03/30 00:27:49;;;;;;;8.38;5.65;;;11.30;99.90;;;;;;5120284;27;20045;-71
2023/03/30 00:30:16;;;;;;;8.80;5.25;;;11.20;99.90;;;;;;5117040;27;20039;-72
2023/03/30 00:32:45;;;;;;;6.63;4.43;;;11.30;99.90;;;;;;5130567;27;20031;-71
2023/03/30 00:35:12;;;;;;;9.18;5.57;;;11.20;99.90;;;;;;5130879;27;20034;-71
2023/03/30 00:37:38;;;;;;;8.50;4.90;;;11.20;99.90;;;;;;5099040;27;20057;-70
2023/03/30 00:40:13;;;;;;;11.38;5.05;;;11.20;99.90;;;;;;5158474;27;20050;-70
2023/03/30 00:42:38;;;;;;;9.25;5.05;;;11.20;99.90;;;;;;5115955;27;20063;-69
2023/03/30 00:45:26;;;;;;;9.68;5.22;;;11.20;99.90;;;;;;5115531;27;20804;-70
2023/03/30 00:48:04;;;;;;;9.05;5.70;;;11.20;99.90;;;;;;5121306;27;20087;-70
2023/03/30 00:50:42;;;;;;;7.32;5.15;;;11.20;99.90;;;;;;5110908;27;20054;-71
2023/03/30 00:53:16;;;;;;;11.20;5.35;;;11.20;99.90;;;;;;5128854;27;20031;-70
2023/03/30 00:55:44;;;;;;;8.43;5.00;;;11.20;99.90;;;;;;5112383;27;20100;-72
2023/03/30 00:58:12;;;;;;;6.43;5.13;;;11.20;99.90;;;;;;5116682;27;20066;-71
2023/03/30 01:00:39;;;;;;;9.07;5.30;;;11.20;99.90;;;;;;5113061;27;20026;-74
2023/03/30 01:03:16;;;;;;;10.18;5.32;;;11.20;99.90;;;;;;5112196;27;20130;-71
2023/03/30 01:05:43;;;;;;;10.10;4.72;;;11.20;99.90;;;;;;5117109;27;20038;-71
2023/03/30 01:08:12;;;;;;;9.48;5.47;;;11.20;99.90;;;;;;5145099;27;20054;-71
2023/03/30 01:10:38;;;;;;;8.77;4.80;;;11.20;99.90;;;;;;5126627;27;20053;-71
2023/03/30 01:13:05;;;;;;;8.23;5.25;;;11.30;99.90;;;;;;5104652;27;20074;-71
2023/03/30 01:15:39;;;;;;;9.20;5.10;;;11.30;99.90;;;;;;5113172;27;20080;-70
2023/03/30 01:18:09;;;;;;;9.95;4.95;;;11.30;99.90;;;;;;5117229;27;20132;-71
2023/03/30 01:21:06;;;;;;;7.43;4.72;;;11.30;99.90;;;;;;5107840;27;20039;-73
2023/03/30 01:23:56;;;;;;;8.75;4.80;;;11.30;99.90;;;;;;5114058;27;20043;-71
2023/03/30 01:26:33;;;;;;;6.40;4.30;;;11.40;99.90;;;;;;5113695;27;20075;-72
2023/03/30 01:29:23;;;;;;;10.23;4.95;;;11.40;99.90;;;;;;5112787;27;20134;-72
2023/03/30 01:32:04;;;;;;;9.57;4.57;;;11.40;99.90;;;;;;5114196;27;20140;-70
2023/03/30 01:34:53;;;;;;;8.73;4.03;;;11.40;99.90;;;;;;5119267;27;20031;-72
2023/03/30 01:37:37;;;;;;;5.47;3.92;;;11.50;99.90;;;;;;5119785;27;20083;-70
2023/03/30 01:40:33;;;;;;;7.65;3.78;;;11.60;99.90;;;;;;5106871;27;20077;-71
2023/03/30 01:43:19;;;;;;;6.63;3.50;;;11.70;99.90;;;;;;5095148;27;20513;-69
2023/03/30 01:45:54;;;;;;;7.82;4.30;;;11.80;99.90;;;;;;5100160;27;20131;-71
2023/03/30 01:48:28;;;;;;;8.30;4.65;;;11.80;99.90;;;;;;5099516;27;20043;-72
2023/03/30 01:50:59;;;;;;;5.65;3.83;;;11.80;99.90;;;;;;5133969;27;20035;-71
2023/03/30 01:53:47;;;;;;;6.40;3.75;;;11.80;99.90;;;;;;5137435;27;20035;-71
2023/03/30 01:56:16;;;;;;;4.97;3.53;;;11.90;99.90;;;;;;5130238;27;20169;-71
2023/03/30 01:58:41;;;;;;;5.40;3.88;;;11.90;99.90;;;;;;5102994;27;20035;-73
2023/03/30 02:01:09;;;;;;;7.72;4.00;;;11.90;99.90;;;;;;5102573;27;20435;-70
2023/03/30 02:03:42;;;;;;;7.30;4.45;;;11.90;99.90;;;;;;5100663;27;20076;-70
2023/03/30 02:06:18;;;;;;;7.03;3.90;;;11.90;99.90;;;;;;5107975;27;20046;-69
2023/03/30 02:08:48;;;;;;;7.22;4.07;;;11.90;99.90;;;;;;5114372;27;20062;-72
2023/03/30 02:11:14;;;;;;;7.40;3.65;;;11.90;99.90;;;;;;5117163;27;20386;-70
2023/03/30 02:13:41;;;;;;;5.68;3.22;;;11.90;99.90;;;;;;5114859;27;20223;-70
2023/03/30 02:16:30;;;;;;;8.13;3.95;;;11.90;99.90;;;;;;5096380;27;20423;-71
2023/03/30 02:18:56;;;;;;;8.73;3.60;;;11.90;99.90;;;;;;5113236;27;20084;-71
2023/03/30 02:21:22;;;;;;;6.75;3.90;;;11.90;99.90;;;;;;5107891;27;20043;-69
2023/03/30 02:23:52;;;;;;;8.85;4.40;;;11.90;99.90;;;;;;5113161;27;20038;-70
2023/03/30 02:26:17;;;;;;;8.25;3.70;;;11.90;99.90;;;;;;5114334;27;20083;-69
2023/03/30 02:28:43;;;;;;;6.78;3.28;;;12.00;99.90;;;;;;5115273;27;20027;-70
2023/03/30 02:31:12;;;;;;;6.43;3.50;;;12.10;99.90;;;;;;5117943;27;20058;-70
2023/03/30 02:33:57;;;;;;;6.53;3.67;;;12.10;99.90;;;;;;5147107;27;20044;-69
2023/03/30 02:36:40;;;;;;;5.95;2.95;;;12.10;99.90;;;;;;5125905;27;20042;-71
2023/03/30 02:39:41;;;;;;;6.32;3.33;;;12.00;99.90;;;;;;5116676;27;20062;-73
2023/03/30 02:42:31;;;;;;;7.82;3.38;;;12.00;99.90;;;;;;5105825;27;20097;-73
2023/03/30 02:44:56;;;;;;;5.70;3.00;;;11.90;99.90;;;;;;5097339;27;20046;-71
2023/03/30 02:47:35;;;;;;;4.78;2.90;;;12.00;99.90;;;;;;5125653;27;20050;-72
2023/03/30 02:50:07;;;;;;;7.47;3.40;;;12.00;99.90;;;;;;5102200;27;20035;-69
2023/03/30 02:52:51;;;;;;;8.10;3.38;;;12.00;99.90;;;;;;5097559;27;20153;-71
2023/03/30 02:55:23;;;;;;;9.32;3.78;;;12.00;99.90;;;;;;5111645;27;20043;-71
2023/03/30 02:58:18;;;;;;;7.28;3.10;;;11.90;99.90;;;;;;5126279;27;20039;-70
2023/03/30 03:00:55;;;;;;;5.22;3.10;;;11.80;99.90;;;;;;5042195;28;20055;-71
2023/03/30 03:03:42;;;;;;;6.63;3.13;;;11.90;99.90;;;;;;5033732;28;20064;-71
2023/03/30 03:06:10;;;;;;;6.93;3.13;;;11.80;99.90;;;;;;5033579;28;20113;-71
2023/03/30 03:08:38;;;;;;;6.15;3.25;;;11.80;99.90;;;;;;5042007;28;20491;-69
2023/03/30 03:11:05;;;;;;;6.40;3.40;;;11.90;99.90;;;;;;5042766;28;20041;-71
2023/03/30 03:13:32;;;;;;;3.42;2.60;;;11.90;99.90;;;;;;5032075;28;20056;-71
2023/03/30 03:16:00;;;;;;;7.28;2.80;;;11.90;99.90;;;;;;5011981;28;20040;-71
2023/03/30 03:18:25;;;;;;;6.88;3.42;;;11.90;99.90;;;;;;5041715;28;20092;-70
2023/03/30 03:20:51;;;;;;;5.60;2.90;;;12.00;99.90;;;;;;5060912;28;20123;-70
2023/03/30 03:23:16;;;;;;;7.82;2.90;;;12.00;99.90;;;;;;5027764;28;20147;-70
2023/03/30 03:25:42;;;;;;;8.07;3.17;;;12.00;99.90;;;;;;5059982;28;20567;-70
2023/03/30 03:28:08;;;;;;;7.72;2.80;;;12.00;99.90;;;;;;5030963;28;20407;-70
2023/03/30 03:30:33;;;;;;;5.30;3.00;;;12.00;99.90;;;;;;5026193;28;20052;-71
2023/03/30 03:32:59;;;;;;;7.07;2.75;;;12.00;99.90;;;;;;5028041;28;20069;-71
2023/03/30 03:35:26;;;;;;;5.13;2.70;;;12.00;99.90;;;;;;5025695;28;20060;-72
2023/03/30 03:37:52;;;;;;;6.68;2.80;;;12.10;99.90;;;;;;5104122;27;20054;-70
2023/03/30 03:40:17;;;;;;;6.22;2.85;;;12.10;99.90;;;;;;5134015;27;20949;-69
2023/03/30 03:42:43;;;;;;;7.13;3.28;;;12.10;99.90;;;;;;5102873;27;20310;-71
2023/03/30 03:45:09;;;;;;;7.85;2.80;;;12.20;99.90;;;;;;5104216;27;20118;-72
2023/03/30 03:47:35;;;;;;;6.70;2.30;;;12.20;99.90;;;;;;5131329;27;20039;-72
2023/03/30 03:50:02;;;;;;;7.68;2.67;;;12.20;99.90;;;;;;5114121;27;20046;-72
2023/03/30 03:52:29;;;;;;;8.65;3.20;;;12.20;99.90;;;;;;5114387;27;20039;-71
2023/03/30 03:54:55;;;;;;;6.28;3.08;;;12.20;99.90;;;;;;5113381;27;20047;-73
2023/03/30 03:57:22;;;;;;;8.68;2.25;;;12.30;99.90;;;;;;5114505;27;20043;-71
2023/03/30 03:59:48;;;;;;;8.20;2.75;;;12.30;99.90;;;;;;5111633;27;20043;-71
2023/03/30 04:02:15;;;;;;;8.43;2.60;;;12.30;99.90;;;;;;5130107;27;20058;-70
2023/03/30 04:04:40;;;;;;;5.50;2.88;;;12.30;99.90;;;;;;5125378;27;20086;-71
2023/03/30 04:07:06;;;;;;;7.90;2.63;;;12.30;99.90;;;;;;5113038;27;20127;-70
2023/03/30 04:09:32;;;;;;;5.07;2.67;;;12.30;99.90;;;;;;5115322;27;20046;-71
2023/03/30 04:11:57;;;;;;;6.57;2.45;;;12.30;99.90;;;;;;5115392;27;20043;-72
2023/03/30 04:14:23;;;;;;;7.43;2.80;;;12.30;99.90;;;;;;5113481;27;20047;-71
2023/03/30 04:16:50;;;;;;;6.18;2.78;;;12.30;99.90;;;;;;5111277;27;20110;-71
2023/03/30 04:19:16;;;;;;;7.63;3.17;;;12.20;99.90;;;;;;5115467;27;20061;-70
2023/03/30 04:21:45;;;;;;;5.45;3.25;;;12.10;99.90;;;;;;5113654;27;20068;-71
2023/03/30 04:24:14;;;;;;;6.15;2.92;;;11.90;99.90;;;;;;5094167;27;20087;-72
2023/03/30 04:26:40;;;;;;;7.90;3.08;;;11.80;99.90;;;;;;5114016;27;20034;-69
2023/03/30 04:29:07;;;;;;;6.50;3.20;;;11.70;99.90;;;;;;5109508;27;20516;-71
2023/03/30 04:31:34;;;;;;;8.02;2.80;;;11.60;99.90;;;;;;5118314;27;20035;-71
2023/03/30 04:34:01;;;;;;;7.57;3.08;;;11.50;99.90;;;;;;5114743;27;20038;-72
2023/03/30 04:36:28;;;;;;;6.28;3.25;;;11.50;99.90;;;;;;5145491;27;20031;-70
2023/03/30 04:38:58;;;;;;;7.28;3.20;;;11.40;99.90;;;;;;5103117;27;20135;-72
2023/03/30 04:41:32;;;;;;;5.53;3.05;;;11.40;99.90;;;;;;5116313;27;20065;-71
2023/03/30 04:44:07;;;;;;;7.60;3.38;;;11.30;99.90;;;;;;5112362;27;20032;-73
2023/03/30 04:46:34;;;;;;;8.55;3.40;;;11.30;99.90;;;;;;5114576;27;20118;-71
2023/03/30 04:49:00;;;;;;;7.20;3.05;;;11.30;99.90;;;;;;5111907;27;20039;-72
2023/03/30 04:51:28;;;;;;;6.43;3.17;;;11.30;99.90;;;;;;5110869;27;20035;-71
2023/03/30 04:53:54;;;;;;;8.55;3.10;;;11.40;99.90;;;;;;5114462;27;20031;-73
2023/03/30 04:56:20;;;;;;;4.93;3.10;;;11.40;99.90;;;;;;5094434;27;20050;-72
2023/03/30 04:58:46;;;;;;;7.82;3.20;;;11.40;99.90;;;;;;5101830;27;20458;-71
2023/03/30 05:01:13;;;;;;;6.93;3.00;;;11.50;99.90;;;;;;5108508;27;20405;-71
2023/03/30 05:03:39;;;;;;;5.35;2.80;;;11.50;99.90;;;;;;5092364;27;20039;-71
2023/03/30 05:06:05;;;;;;;6.32;2.90;;;11.50;99.90;;;;;;5110482;27;20038;-71
2023/03/30 05:08:32;;;;;;;7.35;2.83;;;11.60;99.90;;;;;;5117891;27;20047;-71
2023/03/30 05:11:03;;;;;;;9.80;3.40;;;11.50;99.90;;;;;;5104468;27;20031;-73
2023/03/30 05:13:30;;;;;;;10.20;3.50;;;11.60;99.90;;;;;;5143208;27;20402;-72
2023/03/30 05:15:56;;;;;;;6.18;2.85;;;11.50;99.90;;;;;;5111700;27;20042;-74
2023/03/30 05:18:22;;;;;;;8.95;3.20;;;11.40;99.90;;;;;;5094162;27;20047;-71
2023/03/30 05:20:48;;;;;;;9.00;2.80;;;11.40;99.90;;;;;;5099506;27;20527;-73
2023/03/30 05:23:13;;;;;;;7.82;2.67;;;11.40;99.90;;;;;;5104311;28;20023;-73
2023/03/30 05:25:47;;;;;;;6.20;2.78;;;11.40;99.90;;;;;;5122964;27;20079;-74
2023/03/30 05:28:13;;;;;;;5.57;2.40;;;11.40;99.90;;;;;;5113365;27;20043;-72
2023/03/30 05:30:39;;;;;;;6.47;2.50;;;11.40;99.90;;;;;;5115098;27;20473;-74
2023/03/30 05:33:05;;;;;;;6.00;2.60;;;11.50;99.90;;;;;;5101480;27;20099;-71
2023/03/30 05:35:30;;;;;;;7.40;2.30;;;11.60;99.90;;;;;;5112156;27;20035;-74
2023/03/30 05:37:57;;;;;;;5.97;2.33;;;11.60;99.90;;;;;;5116396;27;20099;-72
2023/03/30 05:40:22;;;;;;;7.68;2.47;;;11.60;99.90;;;;;;5120517;27;20489;-73
2023/03/30 05:42:48;;;;;;;8.43;2.40;;;11.80;99.90;;;;;;5113219;27;20084;-73
2023/03/30 05:45:14;;;;;;;11.60;3.25;;;11.80;99.90;;;;;;5112059;27;20393;-74
2023/03/30 05:47:39;;;;;;;8.73;3.10;;;11.80;99.90;;;;;;5093759;27;20572;-71
2023/03/30 05:50:07;;;;;;;5.70;2.97;;;11.80;99.90;;;;;;5113092;27;20118;-72
2023/03/30 05:52:32;;;;;;;7.30;2.92;;;11.70;99.90;;;;;;5113326;27;20390;-73
2023/03/30 05:54:58;;;;;;;8.27;2.75;;;11.60;99.90;;;;;;5092683;27;20062;-73
2023/03/30 05:57:24;;;;;;;9.85;2.53;;;11.60;99.90;;;;;;5094930;27;20042;-70
2023/03/30 05:59:49;;;;;;;6.07;2.80;;;11.50;99.90;;;;;;5133187;27;20031;-72
2023/03/30 06:02:16;;;;;;;7.85;3.08;;;11.60;99.90;;;;;;5128206;27;20039;-71
2023/03/30 06:04:42;;;;;;;8.32;3.08;;;11.60;99.90;;;;;;5122061;27;20048;-72
2023/03/30 06:07:08;;;;;;;8.02;3.15;;;11.60;99.90;;;;;;5112156;27;20027;-72
2023/03/30 06:09:33;;;;;;;7.35;3.20;;;11.60;99.90;;;;;;5113526;27;20390;-71
2023/03/30 06:12:00;;;;;;;6.95;3.08;;;11.60;99.90;;;;;;5116677;27;20039;-73
2023/03/30 06:14:25;;;;;;;8.18;3.05;;;11.60;99.90;;;;;;5116244;27;20047;-72
2023/03/30 06:16:51;;;;;;;7.78;2.90;;;11.70;99.90;;;;;;5116409;27;20057;-71
2023/03/30 06:19:17;;;;;;;9.63;2.95;;;11.70;99.90;;;;;;5099269;27;20050;-71
2023/03/30 06:21:43;;;;;;;8.50;3.60;;;11.70;99.90;;;;;;5116392;27;20031;-71
2023/03/30 06:24:08;;;;;;;5.40;2.60;;;11.70;99.90;;;;;;5115999;27;20120;-71
2023/03/30 06:26:34;;;;;;;7.05;2.90;;;11.80;99.90;;;;;;5122781;27;20066;-72
2023/03/30 06:29:00;;;;;;;4.38;2.50;;;11.80;99.90;;;;;;5136744;27;20121;-71
2023/03/30 06:31:25;;;;;;;8.57;2.25;;;11.90;99.90;;;;;;5136753;27;20042;-71
2023/03/30 06:33:51;;;;;;;9.98;2.40;;;11.90;99.90;;;;;;5136359;27;20370;-71
2023/03/30 06:36:17;;;;;;;11.18;2.42;;;12.00;99.90;;;;;;5119300;27;20095;-71
2023/03/30 06:38:43;;;;;;;11.30;2.70;;;12.00;99.90;;;;;;5136391;27;20035;-73
2023/03/30 06:41:11;;;;;;;7.88;2.22;;;12.00;99.90;;;;;;5136142;27;20051;-73
2023/03/30 06:43:37;;;;;;;14.52;2.47;;;12.00;99.90;;;;;;5136348;27;20041;-75
2023/03/30 06:46:04;;;;;;;8.73;2.50;;;12.00;99.90;;;;;;5136350;27;20041;-71
2023/03/30 06:48:30;;;;;;;8.68;2.20;;;12.00;99.90;;;;;;5125194;27;20047;-72
2023/03/30 06:50:56;;;;;;;9.05;1.73;;;12.10;99.90;;;;;;5136027;27;20039;-72
2023/03/30 06:53:23;;;;;;;5.95;2.00;;;12.10;99.90;;;;;;5132554;27;20431;-72
2023/03/30 06:55:54;;;;;;;7.82;2.15;;;12.10;99.90;;;;;;5109440;27;20496;-71
2023/03/30 06:58:20;;;;;;;12.10;2.05;;;12.10;99.90;;;;;;5135934;27;20046;-70
2023/03/30 07:00:46;;;;;;;12.75;2.35;;;12.10;99.90;;;;;;5119241;27;20042;-73
2023/03/30 07:03:12;;;;;;;14.30;3.08;;;12.10;99.90;;;;;;5115480;27;20046;-73
2023/03/30 07:05:37;;;;;;;10.82;2.72;;;12.10;99.90;;;;;;5115607;27;20517;-72
2023/03/30 07:08:04;;;;;;;10.75;2.40;;;12.10;99.90;;;;;;5115329;27;20046;-73
2023/03/30 07:10:31;;;;;;;11.38;2.67;;;12.10;99.90;;;;;;5115577;27;20051;-73
2023/03/30 07:12:56;;;;;;;11.88;2.80;;;12.10;99.90;;;;;;5115485;27;20053;-72
2023/03/30 07:15:23;;;;;;;15.10;3.03;;;12.10;99.90;;;;;;5124063;27;20117;-73
2023/03/30 07:17:49;;;;;;;14.20;2.70;;;12.20;99.90;;;;;;5135680;27;20035;-72
2023/03/30 07:20:15;;;;;;;13.75;3.10;;;12.20;99.90;;;;;;5135469;27;20031;-73
2023/03/30 07:22:41;;;;;;;15.55;2.85;;;12.20;99.90;;;;;;5135678;27;20161;-71
2023/03/30 07:25:08;;;;;;;13.38;2.88;;;12.10;99.90;;;;;;5135374;27;20159;-73
2023/03/30 07:27:35;;;;;;;13.30;2.60;;;12.10;99.90;;;;;;5135675;27;20050;-73
2023/03/30 07:30:01;;;;;;;11.65;2.63;;;12.10;99.90;;;;;;5104920;27;20485;-72
2023/03/30 07:32:26;;;;;;;13.90;2.78;;;12.10;99.90;;;;;;5114736;27;20042;-74
2023/03/30 07:34:53;;;;;;;10.02;2.88;;;12.10;99.90;;;;;;5114765;27;20039;-73
2023/03/30 07:37:18;;;;;;;13.23;3.45;;;12.10;99.90;;;;;;5114624;27;20175;-72
2023/03/30 07:39:44;;;;;;;13.45;2.95;;;12.00;99.90;;;;;;5131818;27;20129;-74
2023/03/30 07:42:10;;;;;;;17.15;3.20;;;12.00;99.90;;;;;;5135480;27;20077;-73
2023/03/30 07:44:36;;;;;;;16.60;2.78;;;12.00;99.90;;;;;;5118467;27;20068;-73
2023/03/30 07:47:05;;;;;;;17.50;4.05;;;11.90;99.90;;;;;;5135541;27;20463;-71
2023/03/30 07:49:31;;;;;;;16.27;2.92;;;11.90;99.90;;;;;;5117820;27;20084;-73
2023/03/30 07:51:58;;;;;;;15.85;3.40;;;11.90;99.90;;;;;;5133650;27;20141;-71
2023/03/30 07:54:24;;;;;;;15.15;3.22;;;11.90;99.90;;;;;;5114983;27;20043;-72
2023/03/30 07:56:51;;;;;;;15.35;2.88;;;11.90;99.90;;;;;;5114483;27;20047;-75
2023/03/30 07:59:18;;;;;;;18.02;3.25;;;11.90;99.90;;;;;;5114340;27;20039;-72
2023/03/30 08:01:45;;;;;;;19.90;3.58;;;11.90;99.90;;;;;;5114427;27;20035;-71
2023/03/30 08:04:12;;;;;;;15.90;3.70;;;11.90;99.90;;;;;;5114249;27;20093;-73
2023/03/30 08:06:38;;;;;;;23.45;4.25;;;11.90;99.90;;;;;;5115305;27;20064;-73
2023/03/30 08:09:04;;;;;;;16.17;3.10;;;11.90;99.90;;;;;;5134849;27;20038;-71
2023/03/30 08:11:31;;;;;;;19.45;3.90;;;11.90;99.90;;;;;;5135203;27;20481;-72
2023/03/30 08:13:57;;;;;;;17.67;2.95;;;11.80;99.90;;;;;;5134948;27;20034;-70
2023/03/30 08:16:23;;;;;;;19.60;3.53;;;11.80;99.90;;;;;;5134463;27;20047;-71
2023/03/30 08:18:48;;;;;;;14.88;3.83;;;11.80;99.90;;;;;;5134542;27;20095;-70
2023/03/30 08:21:14;;;;;;;19.77;3.50;;;11.70;99.90;;;;;;5128963;27;20042;-74
2023/03/30 08:23:39;;;;;;;21.98;4.30;;;11.70;99.90;;;;;;5111133;27;20031;-71
2023/03/30 08:26:05;;;;;;;18.55;3.10;;;11.70;99.90;;;;;;5114158;27;20038;-71
2023/03/30 08:28:31;;;;;;;24.25;3.60;;;11.70;99.90;;;;;;5114066;27;20379;-73
2023/03/30 08:31:03;;;;;;;21.67;3.88;;;11.70;99.90;;;;;;5113616;27;20042;-73
2023/03/30 08:33:29;;;;;;;17.67;3.38;;;11.70;99.90;;;;;;5113160;27;20051;-71
2023/03/30 08:35:54;;;;;;;21.77;3.88;;;11.70;99.90;;;;;;5113812;27;20143;-74
2023/03/30 08:38:20;;;;;;;19.27;4.65;;;11.70;99.90;;;;;;5133688;27;20483;-73
2023/03/30 08:40:47;;;;;;;23.48;3.85;;;11.70;99.90;;;;;;5134081;27;20077;-73
2023/03/30 08:43:35;;;;;;;15.10;3.28;;;11.70;99.90;;;;;;5134036;27;20039;-72
2023/03/30 08:46:01;;;;;;;20.10;3.70;;;11.70;99.90;;;;;;5113466;27;20070;-72
2023/03/30 08:48:31;;;;;;;20.73;3.95;;;11.80;99.90;;;;;;5111228;27;20371;-72
2023/03/30 08:51:10;;;;;;;20.23;3.58;;;11.90;99.90;;;;;;5132709;27;20107;-73
2023/03/30 08:53:36;;;;;;;20.88;3.50;;;12.00;99.90;;;;;;5134153;27;20038;-73
2023/03/30 08:56:16;;;;;;;18.48;3.95;;;12.10;99.90;;;;;;5134105;27;20081;-73
2023/03/30 08:58:58;;;;;;;17.60;3.55;;;12.10;99.90;;;;;;5133743;27;20030;-73
2023/03/30 09:01:44;;;;;;;17.95;3.95;;;12.40;99.90;;;;;;5133749;27;20046;-74
2023/03/30 09:04:16;;;;;;;21.52;3.20;;;12.60;99.90;;;;;;5134016;27;20047;-72
2023/03/30 09:07:20;;;;;;;21.63;3.72;;;12.80;99.90;;;;;;5133599;27;20035;-73
2023/03/30 09:09:50;;;;;;;21.83;3.70;;;12.80;99.90;;;;;;5133016;27;20078;-73
2023/03/30 09:12:22;;;;;;;24.13;5.20;;;12.80;99.90;;;;;;5133976;27;20377;-72
2023/03/30 09:14:52;;;;;;;19.92;3.17;;;12.70;99.90;;;;;;5133570;27;20117;-72
2023/03/30 09:17:46;;;;;;;18.48;3.67;;;12.60;99.90;;;;;;5133429;27;20160;-71
2023/03/30 09:20:26;;;;;;;18.00;3.17;;;12.60;99.90;;;;;;5131752;27;20452;-72
2023/03/30 09:22:54;;;;;;;19.45;3.42;;;12.60;99.90;;;;;;5133320;27;20033;-71
2023/03/30 09:25:33;;;;;;;17.75;3.60;;;12.70;99.90;;;;;;5133338;27;20130;-73
2023/03/30 09:28:29;;;;;;;15.02;3.30;;;12.80;99.90;;;;;;5118244;27;20039;-73
2023/03/30 09:31:31;;;;;;;13.05;2.80;;;12.80;99.90;;;;;;5095648;27;20035;-74
2023/03/30 09:34:03;;;;;;;19.30;3.40;;;13.00;99.90;;;;;;5011385;28;20490;-74
2023/03/30 09:36:56;;;;;;;12.68;2.95;;;13.10;99.90;;;;;;5011469;28;20056;-74
2023/03/30 09:39:27;;;;;;;15.18;2.80;;;13.20;99.90;;;;;;5011515;28;20046;-70
2023/03/30 09:42:21;;;;;;;15.98;3.30;;;13.30;99.90;;;;;;5011343;28;20080;-72
2023/03/30 09:44:50;;;;;;;14.48;2.47;;;13.30;99.90;;;;;;5012945;28;20045;-70
2023/03/30 09:47:21;;;;;;;13.23;2.20;;;13.30;99.90;;;;;;5015440;28;20120;-72
2023/03/30 09:49:47;;;;;;;11.88;2.25;;;13.20;99.90;;;;;;5013395;28;20052;-72
2023/03/30 09:52:21;;;;;;;14.45;3.08;;;13.10;99.90;;;;;;5015653;28;20045;-74
2023/03/30 09:54:47;;;;;;;15.10;2.30;;;13.00;99.90;;;;;;5015563;28;20547;-72
2023/03/30 09:57:26;;;;;;;10.80;2.42;;;13.00;99.90;;;;;;5015264;28;20064;-73
2023/03/30 09:59:54;;;;;;;15.88;2.58;;;13.00;99.90;;;;;;5015306;28;20038;-74
2023/03/30 10:02:22;;;;;;;12.93;2.40;;;13.00;99.90;;;;;;5015274;28;20575;-72
2023/03/30 10:04:51;;;;;;;12.90;2.70;;;13.00;99.90;;;;;;5015189;28;20129;-76
2023/03/30 10:07:23;;;;;;;14.75;2.67;;;13.10;99.90;;;;;;5014934;28;20096;-74
2023/03/30 10:09:50;;;;;;;10.85;2.42;;;13.30;99.90;;;;;;5063306;27;20051;-74
2023/03/30 10:12:16;;;;;;;14.18;2.08;;;13.50;99.90;;;;;;5116816;27;20057;-74
2023/03/30 10:14:42;;;;;;;11.13;2.63;;;13.50;99.90;;;;;;5122567;27;20039;-74
2023/03/30 10:17:19;;;;;;;14.57;2.92;;;13.60;99.90;;;;;;5111653;27;20957;-73
2023/03/30 10:19:45;;;;;;;9.27;2.20;;;13.70;99.90;;;;;;5137084;27;20093;-72
2023/03/30 10:22:21;;;;;;;13.18;2.65;;;13.70;99.90;;;;;;5136173;27;20071;-73
2023/03/30 10:24:55;;;;;;;12.93;3.13;;;13.60;99.90;;;;;;5099336;27;20039;-74
2023/03/30 10:27:33;;;;;;;14.40;2.60;;;13.70;99.90;;;;;;5116243;27;20042;-73
2023/03/30 10:30:08;;;;;;;12.82;2.40;;;13.80;99.90;;;;;;5098980;27;20498;-75
2023/03/30 10:32:35;;;;;;;16.58;2.63;;;14.00;99.90;;;;;;5116469;27;20397;-72
2023/03/30 10:35:06;;;;;;;12.80;2.50;;;14.00;99.90;;;;;;5115815;27;20114;-72
2023/03/30 10:37:38;;;;;;;12.90;2.72;;;14.00;99.90;;;;;;5116824;27;20500;-72
2023/03/30 10:40:25;;;;;;;13.55;2.85;;;13.90;99.90;;;;;;5136375;27;20047;-71
2023/03/30 10:42:56;;;;;;;10.85;2.88;;;13.90;99.90;;;;;;5135691;27;20035;-74
2023/03/30 10:45:38;;;;;;;16.67;2.50;;;13.70;99.90;;;;;;5136794;27;20126;-73
2023/03/30 10:48:30;;;;;;;11.88;2.38;;;13.70;99.90;;;;;;5136246;27;20081;-74
2023/03/30 10:51:33;;;;;;;15.90;2.60;;;13.70;99.90;;;;;;5118929;27;20117;-71
2023/03/30 10:54:37;;;;;;;13.32;3.33;;;13.70;99.90;;;;;;5136127;27;20043;-73
2023/03/30 10:57:15;;;;;;;12.40;2.40;;;13.80;99.90;;;;;;5135325;27;20039;-73
2023/03/30 11:00:02;;;;;;;15.70;2.45;;;13.90;99.90;;;;;;5136036;27;20073;-72
2023/03/30 11:02:43;;;;;;;13.73;2.90;;;13.90;99.90;;;;;;5136074;27;20126;-72
2023/03/30 11:05:14;;;;;;;15.93;2.58;;;14.00;99.90;;;;;;5135844;27;20057;-73
2023/03/30 11:08:15;;;;;;;15.82;2.60;;;13.90;99.90;;;;;;5135993;27;20042;-74
2023/03/30 11:10:47;;;;;;;17.77;2.72;;;13.80;99.90;;;;;;5070860;28;20044;-72
2023/03/30 11:13:16;;;;;;;16.00;3.35;;;13.70;99.90;;;;;;5073497;28;20059;-71
2023/03/30 11:16:00;;;;;;;12.77;2.15;;;13.70;99.90;;;;;;5073455;28;20106;-74
2023/03/30 11:18:34;;;;;;;20.08;3.25;;;13.60;99.90;;;;;;5073449;28;20422;-74
2023/03/30 11:21:19;;;;;;;18.27;3.80;;;13.50;99.90;;;;;;5073183;28;20036;-75
2023/03/30 11:23:58;;;;;;;19.42;4.30;;;13.50;99.90;;;;;;5073468;28;20031;-73
2023/03/30 11:26:48;;;;;;;17.58;3.22;;;13.50;99.90;;;;;;5073322;28;20075;-71
2023/03/30 11:29:36;;;;;;;16.55;3.03;;;13.60;99.90;;;;;;5073009;28;20044;-74
2023/03/30 11:32:04;;;;;;;12.30;2.33;;;13.60;99.90;;;;;;5044022;28;20127;-72
2023/03/30 11:34:30;;;;;;;15.75;3.13;;;13.80;99.90;;;;;;5052869;28;20066;-71
2023/03/30 11:37:12;;;;;;;17.52;3.08;;;13.90;99.90;;;;;;5044094;28;20036;-73
2023/03/30 11:39:44;;;;;;;18.40;3.10;;;14.00;99.90;;;;;;5056172;28;20041;-72
2023/03/30 11:42:21;;;;;;;19.33;3.72;;;14.10;99.90;;;;;;5072851;28;20482;-72
2023/03/30 11:44:47;;;;;;;14.43;2.83;;;14.30;99.90;;;;;;5056243;28;20123;-74
2023/03/30 11:47:16;;;;;;;19.45;3.72;;;14.40;99.90;;;;;;5091924;27;20125;-73
2023/03/30 11:50:00;;;;;;;23.23;3.25;;;14.40;99.90;;;;;;5118055;27;20038;-74
2023/03/30 11:52:48;;;;;;;14.77;3.22;;;14.40;99.90;;;;;;5135403;27;20047;-72
2023/03/30 11:55:28;;;;;;;17.92;3.30;;;14.30;99.90;;;;;;5117831;27;20039;-73
2023/03/30 11:58:00;;;;;;;15.88;3.05;;;14.50;99.90;;;;;;5134884;27;20045;-72
2023/03/30 12:00:53;;;;;;;20.65;3.15;;;14.80;99.90;;;;;;5117812;27;20038;-72
2023/03/30 12:03:37;;;;;;;20.65;3.40;;;15.00;99.90;;;;;;5134942;27;20117;-72
2023/03/30 12:06:35;;;;;;;19.90;3.28;;;15.20;99.90;;;;;;5134853;27;20123;-70
2023/03/30 12:09:09;;;;;;;21.63;3.53;;;15.00;99.90;;;;;;5071901;28;20040;-72
2023/03/30 12:11:52;;;;;;;14.00;2.78;;;15.30;99.90;;;;;;5072417;28;20951;-73
2023/03/30 12:14:33;;;;;;;;;;;15.60;99.90;;;;;;5033672;28;20048;-73
2023/03/30 12:17:29;;;;;;;17.27;2.95;;;15.50;99.90;;;;;;5052314;28;19961;-72
2023/03/30 12:19:58;;;;;;;17.33;3.20;;;15.40;99.90;;;;;;5045445;28;20083;-72
2023/03/30 12:22:30;;;;;;;17.00;3.55;;;15.50;99.90;;;;;;5028363;28;20416;-71
2023/03/30 12:25:13;;;;;;;;;;;15.30;99.90;;;;;;5046021;28;20054;-73
2023/03/30 12:28:11;;;;;;;;;;;15.10;99.90;;;;;;4996612;28;19917;-73
2023/03/30 12:30:52;;;;;;;18.38;3.50;;;14.70;99.90;;;;;;4966969;28;19926;-72
2023/03/30 12:33:19;;;;;;;22.58;4.57;;;14.60;99.90;;;;;;4934837;28;20590;-73
2023/03/30 12:35:54;;;;;;;24.85;3.55;;;14.40;99.90;;;;;;4966764;28;20040;-73
2023/03/30 12:38:26;;;;;;;19.63;3.65;;;14.40;99.90;;;;;;4934593;28;20086;-73
2023/03/30 12:41:04;;;;;;;17.25;3.40;;;14.40;99.90;;;;;;4950634;28;20047;-72
2023/03/30 12:43:51;;;;;;;20.55;3.80;;;14.60;99.90;;;;;;4952010;28;20053;-71
2023/03/30 12:46:51;;;;;;;22.70;4.45;;;14.80;99.90;;;;;;4966905;28;20177;-72
2023/03/30 12:49:25;;;;;;;19.60;3.45;;;14.70;99.90;;;;;;4933584;29;20474;-73
2023/03/30 12:52:14;;;;;;;22.98;3.78;;;14.90;99.90;;;;;;4915794;29;20044;-72
2023/03/30 12:54:58;;;;;;;20.38;3.60;;;14.80;99.90;;;;;;4896391;29;20106;-73
2023/03/30 12:57:30;;;;;;;22.67;5.18;;;14.80;99.90;;;;;;4941894;28;20500;-73
2023/03/30 13:00:24;;;;;;;20.63;4.13;;;14.90;99.90;;;;;;4972466;28;20046;-72
2023/03/30 13:02:59;;;;;;;22.38;3.67;;;14.90;99.90;;;;;;4935082;28;20138;-73
2023/03/30 13:05:41;;;;;;;20.00;4.65;;;14.60;99.90;;;;;;4959673;28;20418;-72
2023/03/30 13:08:30;;;;;;;27.38;4.70;;;14.40;99.90;;;;;;4992057;28;20050;-75